createdAt,value
2022-11-02T00:10:43.553Z,14.40
2022-11-02T00:25:48.817Z,16.10
2022-11-02T00:40:50.659Z,17.98
2022-11-02T00:55:54.157Z,13.30
2022-11-02T01:10:56.013Z,11.65
2022-11-02T01:25:57.838Z,11.25
2022-11-02T01:41:00.386Z,13.23
2022-11-02T01:56:02.746Z,13.70
2022-11-02T02:11:42.702Z,10.82
2022-11-02T02:27:09.085Z,11.18
2022-11-02T02:42:35.960Z,12.18
2022-11-02T02:57:38.460Z,9.75
2022-11-02T03:12:56.350Z,11.50
2022-11-02T03:28:13.211Z,10.80
2022-11-02T03:43:17.165Z,12.23
2022-11-02T03:58:19.037Z,10.60
2022-11-02T04:13:39.217Z,10.48
2022-11-02T04:28:41.068Z,9.70
2022-11-02T04:43:43.278Z,9.45
2022-11-02T04:58:49.960Z,11.50
2022-11-02T05:13:51.799Z,10.70
2022-11-02T05:28:53.637Z,10.15
2022-11-02T05:43:55.471Z,10.32
2022-11-02T05:58:57.308Z,14.55
2022-11-02T06:13:59.159Z,11.38
2022-11-02T06:29:01.153Z,12.45
2022-11-02T06:44:03.012Z,10.18
2022-11-02T06:59:04.852Z,11.20
2022-11-02T07:14:06.830Z,11.75
2022-11-02T07:29:08.708Z,10.98
2022-11-02T07:44:10.634Z,11.82
2022-11-02T07:59:13.204Z,10.73
2022-11-02T08:14:15.057Z,9.13
2022-11-02T08:29:16.905Z,8.43
2022-11-02T08:44:20.189Z,6.22
2022-11-02T08:59:22.083Z,5.50
2022-11-02T09:14:24.122Z,3.92
2022-11-02T09:29:26.085Z,4.18
2022-11-02T09:44:54.460Z,3.30
2022-11-02T09:59:57.319Z,3.80
2022-11-02T10:15:05.731Z,3.22
2022-11-02T10:30:18.569Z,2.60
2022-11-02T10:45:45.043Z,3.05
2022-11-02T11:00:48.266Z,3.25
2022-11-02T11:15:54.451Z,2.90
2022-11-02T11:31:12.662Z,2.97
2022-11-02T11:46:15.737Z,3.07
2022-11-02T12:01:20.146Z,2.70
2022-11-02T12:16:30.930Z,2.63
2022-11-02T12:31:37.300Z,3.00
2022-11-02T12:46:42.281Z,2.72
2022-11-02T13:17:02.170Z,2.22
2022-11-02T13:32:15.814Z,2.70
2022-11-02T13:47:35.769Z,2.67
2022-11-02T14:02:43.490Z,3.28
2022-11-02T14:18:02.155Z,3.30
2022-11-02T14:33:14.735Z,2.92
2022-11-02T14:48:17.051Z,2.45
2022-11-02T15:03:25.214Z,2.42
2022-11-02T15:18:30.290Z,2.77
2022-11-02T15:33:48.479Z,4.40
2022-11-02T15:49:15.445Z,3.87
2022-11-02T16:04:21.540Z,3.67
2022-11-02T16:19:23.556Z,3.45
2022-11-02T16:34:32.054Z,3.50
2022-11-02T16:49:57.852Z,4.00
2022-11-02T17:05:04.836Z,3.50
2022-11-02T17:20:16.441Z,5.30
2022-11-02T17:35:21.876Z,5.30
2022-11-02T17:50:28.825Z,5.33
2022-11-02T18:05:37.313Z,6.95
2022-11-02T18:20:41.880Z,6.40
2022-11-02T18:35:44.342Z,6.82
2022-11-02T18:50:46.321Z,6.72
2022-11-02T19:06:06.853Z,6.10
2022-11-02T19:21:08.896Z,5.63
2022-11-02T19:36:10.794Z,6.25
2022-11-02T19:51:19.297Z,4.43
2022-11-02T20:06:36.566Z,4.93
2022-11-02T20:21:43.115Z,7.15
2022-11-02T20:36:45.689Z,8.23
2022-11-02T20:51:47.661Z,9.40
2022-11-02T21:06:50.425Z,6.78
2022-11-02T21:21:58.083Z,6.82
2022-11-02T21:52:08.669Z,6.70
2022-11-02T22:07:10.572Z,7.50
2022-11-02T22:22:12.477Z,8.23
2022-11-02T22:37:33.000Z,7.97
2022-11-02T22:52:34.835Z,8.15
2022-11-02T23:07:36.658Z,7.03
2022-11-02T23:22:38.492Z,7.07
2022-11-02T23:37:40.953Z,5.60
2022-11-02T23:53:01.267Z,5.28
